Time;durP1;ratioP1;P1;durP2;ratioP2;P2;SDS_P1;SDS_P2;PMS_P1;PMS_P2;Temp;Humidity;BMP_temperature;BMP_pressure;BME280_temperature;BME280_humidity;BME280_pressure;Samples;Min_cycle;Max_cycle;Signal;HPM_P1;HPM_P2
2023/10/06 00:01:43;;;;;;;10.70;4.60;;;9.50;99.90;;;;;;5081356;27;20069;-67
2023/10/06 00:04:22;;;;;;;12.13;4.38;;;9.50;99.90;;;;;;5089184;28;20126;-65
2023/10/06 00:06:48;;;;;;;14.60;5.03;;;9.50;99.90;;;;;;5068636;28;20056;-65
2023/10/06 00:09:28;;;;;;;10.98;4.15;;;9.40;99.90;;;;;;5090569;28;20040;-65
2023/10/06 00:11:57;;;;;;;9.57;4.40;;;9.40;99.90;;;;;;5093656;28;20103;-65
2023/10/06 00:17:15;;;;;;;16.52;4.38;;;9.40;99.90;;;;;;5090924;28;20891;-65
2023/10/06 00:19:42;;;;;;;9.98;4.75;;;9.30;99.90;;;;;;5078175;28;20452;-65
2023/10/06 00:24:33;;;;;;;13.13;5.03;;;9.30;99.90;;;;;;5080970;28;20059;-66
2023/10/06 00:26:59;;;;;;;10.63;4.28;;;9.30;99.90;;;;;;5086199;28;20032;-64
2023/10/06 00:29:27;;;;;;;10.80;4.57;;;9.30;99.90;;;;;;5092731;28;20028;-71
2023/10/06 00:31:53;;;;;;;15.82;4.32;;;9.30;99.90;;;;;;5096129;28;20048;-66
2023/10/06 00:34:22;;;;;;;10.73;4.75;;;9.20;99.90;;;;;;5082840;28;20062;-66
2023/10/06 00:36:51;;;;;;;11.32;4.10;;;9.20;99.90;;;;;;5085927;28;20024;-66
2023/10/06 00:39:24;;;;;;;14.40;4.32;;;9.20;99.90;;;;;;5092680;28;20082;-66
2023/10/06 00:42:02;;;;;;;11.85;4.53;;;9.20;99.90;;;;;;5087329;28;20040;-66
2023/10/06 00:44:29;;;;;;;11.38;4.28;;;9.20;99.90;;;;;;5088584;28;20020;-67
2023/10/06 00:46:58;;;;;;;9.27;4.78;;;9.20;99.90;;;;;;5074876;28;20505;-66
2023/10/06 00:49:28;;;;;;;10.93;4.43;;;9.10;99.90;;;;;;5093118;28;20028;-65
2023/10/06 00:51:55;;;;;;;11.18;4.18;;;9.10;99.90;;;;;;5087643;28;20595;-66
2023/10/06 00:54:25;;;;;;;11.68;4.50;;;9.20;99.90;;;;;;5092346;28;20020;-66
2023/10/06 00:56:57;;;;;;;12.65;4.75;;;9.10;99.90;;;;;;5089920;28;20401;-66
2023/10/06 00:59:26;;;;;;;13.95;4.95;;;9.20;99.90;;;;;;5088688;28;20024;-63
2023/10/06 01:01:52;;;;;;;14.55;5.25;;;9.20;99.90;;;;;;5085032;28;20028;-65
2023/10/06 01:04:24;;;;;;;11.82;4.15;;;9.10;99.90;;;;;;5088993;28;20016;-64
2023/10/06 01:06:54;;;;;;;19.23;5.50;;;9.10;99.90;;;;;;5091395;28;20547;-65
2023/10/06 01:09:30;;;;;;;9.15;4.55;;;9.10;99.90;;;;;;5086173;28;20082;-61
2023/10/06 01:11:57;;;;;;;17.25;5.38;;;9.20;99.90;;;;;;5089034;28;20111;-66
2023/10/06 01:14:34;;;;;;;8.85;4.00;;;9.10;99.90;;;;;;5088132;28;20016;-65
2023/10/06 01:17:14;;;;;;;15.85;4.80;;;9.10;99.90;;;;;;5089636;28;20073;-66
2023/10/06 01:19:47;;;;;;;8.80;4.70;;;9.10;99.90;;;;;;5076218;28;20032;-65
2023/10/06 01:22:28;;;;;;;10.57;4.05;;;9.10;99.90;;;;;;5089172;28;20119;-65
2023/10/06 01:24:54;;;;;;;9.73;4.70;;;9.10;99.90;;;;;;5088110;28;20035;-64
2023/10/06 01:27:26;;;;;;;11.20;5.40;;;9.10;99.90;;;;;;5088071;28;20425;-61
2023/10/06 01:32:44;;;;;;;13.63;4.25;;;9.10;99.90;;;;;;5089241;28;20181;-65
2023/10/06 01:35:13;;;;;;;11.35;4.85;;;9.10;99.90;;;;;;5085392;28;20020;-65
2023/10/06 01:37:43;;;;;;;10.52;4.15;;;9.00;99.90;;;;;;5087562;28;20031;-66
2023/10/06 01:40:34;;;;;;;16.67;5.25;;;9.00;99.90;;;;;;5089737;28;20022;-66
2023/10/06 01:43:00;;;;;;;15.93;4.53;;;9.00;99.90;;;;;;5088873;28;20424;-67
2023/10/06 01:45:28;;;;;;;14.48;4.45;;;8.90;99.90;;;;;;5092881;28;20028;-65
2023/10/06 01:47:57;;;;;;;12.63;4.82;;;8.90;99.90;;;;;;5090574;27;20039;-67
2023/10/06 01:50:28;;;;;;;9.75;4.45;;;8.90;99.90;;;;;;5093212;28;20079;-67
2023/10/06 01:52:57;;;;;;;9.77;4.63;;;8.90;99.90;;;;;;5067479;28;20162;-66
2023/10/06 01:55:24;;;;;;;12.90;4.63;;;8.90;99.90;;;;;;5088922;28;20032;-65
2023/10/06 01:57:54;;;;;;;8.45;4.43;;;8.90;99.90;;;;;;5088465;28;20020;-65
2023/10/06 02:00:31;;;;;;;17.33;5.70;;;8.90;99.90;;;;;;5087734;28;20550;-65
2023/10/06 02:02:57;;;;;;;15.90;6.47;;;8.90;99.90;;;;;;5091796;28;20031;-66
2023/10/06 02:05:22;;;;;;;16.20;4.68;;;9.00;99.90;;;;;;5086869;28;20031;-66
2023/10/06 02:07:48;;;;;;;14.90;5.57;;;9.00;99.90;;;;;;5089539;28;20028;-65
2023/10/06 02:10:18;;;;;;;13.40;4.45;;;9.00;99.90;;;;;;5088974;28;20028;-67
2023/10/06 02:12:45;;;;;;;13.38;4.57;;;8.90;99.90;;;;;;5089463;28;20016;-65
2023/10/06 02:15:11;;;;;;;10.80;5.60;;;8.90;99.90;;;;;;5084159;28;20103;-63
2023/10/06 02:17:37;;;;;;;12.88;5.22;;;8.90;99.90;;;;;;5088605;28;20103;-65
2023/10/06 02:20:13;;;;;;;7.45;4.15;;;8.90;99.90;;;;;;5088887;28;20024;-64
2023/10/06 02:22:39;;;;;;;11.35;5.40;;;8.90;99.90;;;;;;5085682;28;20058;-66
2023/10/06 02:25:13;;;;;;;12.75;4.70;;;8.80;99.90;;;;;;5079556;28;20028;-65
2023/10/06 02:27:44;;;;;;;9.30;4.78;;;8.80;99.90;;;;;;5088022;28;20466;-66
2023/10/06 02:30:15;;;;;;;10.50;4.55;;;8.80;99.90;;;;;;5088359;28;20028;-65
2023/10/06 02:32:43;;;;;;;16.58;4.82;;;8.80;99.90;;;;;;5081931;28;20055;-66
2023/10/06 02:35:09;;;;;;;14.57;5.53;;;8.80;99.90;;;;;;5089764;28;20111;-65
2023/10/06 02:37:35;;;;;;;13.07;4.60;;;8.80;99.90;;;;;;5088538;28;20567;-64
2023/10/06 02:40:00;;;;;;;7.53;3.92;;;8.80;99.90;;;;;;5076435;28;20035;-65
2023/10/06 02:42:26;;;;;;;6.20;3.78;;;8.80;99.90;;;;;;5085197;28;20097;-65
2023/10/06 02:44:53;;;;;;;13.32;4.85;;;8.80;99.90;;;;;;5077988;28;20111;-66
2023/10/06 02:47:20;;;;;;;14.30;4.55;;;8.80;99.90;;;;;;5052373;28;20051;-65
2023/10/06 02:49:48;;;;;;;14.50;4.85;;;8.80;99.90;;;;;;5088354;28;20114;-65
2023/10/06 02:52:23;;;;;;;9.32;3.97;;;8.80;99.90;;;;;;5094242;28;20024;-66
2023/10/06 02:57:34;;;;;;;15.48;4.38;;;8.80;99.90;;;;;;5095549;28;20473;-66
2023/10/06 03:00:28;;;;;;;13.00;4.57;;;8.80;99.90;;;;;;5091886;28;20439;-65
2023/10/06 03:02:46;;;;;;;8.60;4.43;;;8.80;99.90;;;;;;5092793;28;20170;-66
2023/10/06 03:05:12;;;;;;;9.00;3.80;;;8.80;99.90;;;;;;5093697;28;20097;-66
2023/10/06 03:07:38;;;;;;;14.77;4.63;;;8.70;99.90;;;;;;5092062;28;20035;-64
2023/10/06 03:10:08;;;;;;;8.77;4.32;;;8.70;99.90;;;;;;5092000;28;20027;-66
2023/10/06 03:12:37;;;;;;;12.98;4.95;;;8.70;99.90;;;;;;5091963;28;20401;-66
2023/10/06 03:15:09;;;;;;;8.82;3.88;;;8.70;99.90;;;;;;5091071;28;20020;-66
2023/10/06 03:17:34;;;;;;;8.55;4.03;;;8.60;99.90;;;;;;5091533;28;20119;-66
2023/10/06 03:20:18;;;;;;;7.85;3.92;;;8.60;99.90;;;;;;5093609;28;20173;-66
2023/10/06 03:22:48;;;;;;;9.05;4.97;;;8.60;99.90;;;;;;5094618;28;20450;-66
2023/10/06 03:25:17;;;;;;;9.88;4.15;;;8.60;99.90;;;;;;5097112;28;20516;-66
2023/10/06 03:27:46;;;;;;;10.73;4.05;;;8.50;99.90;;;;;;5093316;28;20028;-65
2023/10/06 03:30:18;;;;;;;7.68;4.85;;;8.60;99.90;;;;;;5076160;28;20024;-66
2023/10/06 03:32:48;;;;;;;11.70;4.35;;;8.50;99.90;;;;;;5072853;28;20024;-65
2023/10/06 03:35:23;;;;;;;7.32;4.05;;;8.50;99.90;;;;;;5070349;28;20024;-65
2023/10/06 03:37:53;;;;;;;10.45;3.95;;;8.50;99.90;;;;;;5093104;28;20016;-65
2023/10/06 03:40:29;;;;;;;8.07;4.20;;;8.50;99.90;;;;;;5091640;28;20032;-66
2023/10/06 03:42:56;;;;;;;7.45;3.92;;;8.50;99.90;;;;;;5070689;28;20105;-67
2023/10/06 03:45:30;;;;;;;8.60;4.00;;;8.50;99.90;;;;;;5076952;28;20386;-64
2023/10/06 03:48:13;;;;;;;11.88;4.13;;;8.50;99.90;;;;;;5082059;28;20036;-66
2023/10/06 03:50:43;;;;;;;11.30;4.07;;;8.40;99.90;;;;;;5073461;28;20044;-66
2023/10/06 03:53:11;;;;;;;14.55;4.65;;;8.40;99.90;;;;;;5090713;28;20016;-65
2023/10/06 03:55:45;;;;;;;14.00;4.10;;;8.40;99.90;;;;;;5094659;28;20157;-65
2023/10/06 03:58:13;;;;;;;17.83;4.30;;;8.40;99.90;;;;;;5091185;28;20024;-68
2023/10/06 04:00:48;;;;;;;8.85;4.07;;;8.40;99.90;;;;;;5071748;28;20043;-66
2023/10/06 04:03:17;;;;;;;10.88;4.18;;;8.40;99.90;;;;;;5094525;28;20055;-67
2023/10/06 04:05:50;;;;;;;6.88;4.22;;;8.40;99.90;;;;;;5081891;28;20032;-66
2023/10/06 04:08:22;;;;;;;11.03;4.23;;;8.40;99.90;;;;;;5094538;28;20031;-65
2023/10/06 04:10:53;;;;;;;13.27;3.95;;;8.40;99.90;;;;;;5095804;28;20098;-65
2023/10/06 04:13:20;;;;;;;10.18;3.78;;;8.30;99.90;;;;;;5073759;28;20508;-65
2023/10/06 04:15:49;;;;;;;10.45;4.28;;;8.30;99.90;;;;;;5091278;28;20039;-65
2023/10/06 04:18:22;;;;;;;14.50;4.43;;;8.30;99.90;;;;;;5093450;28;20346;-67
2023/10/06 04:20:49;;;;;;;9.27;4.45;;;8.30;99.90;;;;;;5091128;28;20024;-64
2023/10/06 04:23:17;;;;;;;7.30;3.97;;;8.30;99.90;;;;;;5092585;28;20062;-64
2023/10/06 04:25:44;;;;;;;9.48;3.95;;;8.30;99.90;;;;;;5091450;28;20025;-66
2023/10/06 04:28:14;;;;;;;17.48;4.90;;;8.40;99.90;;;;;;5095248;28;20143;-65
2023/10/06 04:30:44;;;;;;;10.75;4.60;;;8.40;99.90;;;;;;5090263;28;20040;-67
2023/10/06 04:33:11;;;;;;;9.52;4.28;;;8.40;99.90;;;;;;5090393;28;20076;-65
2023/10/06 04:35:40;;;;;;;8.43;4.28;;;8.40;99.90;;;;;;5072600;28;20024;-65
2023/10/06 04:38:09;;;;;;;16.35;4.50;;;8.30;99.90;;;;;;5093491;28;20027;-66
2023/10/06 04:40:40;;;;;;;10.80;5.07;;;8.30;99.90;;;;;;5092237;28;20035;-66
2023/10/06 04:43:07;;;;;;;10.70;4.35;;;8.30;99.90;;;;;;5092366;28;20035;-65
2023/10/06 04:45:32;;;;;;;14.10;4.13;;;8.20;99.90;;;;;;5090663;28;20043;-66
2023/10/06 04:48:00;;;;;;;11.63;4.68;;;8.20;99.90;;;;;;5090317;28;20032;-65
2023/10/06 04:50:27;;;;;;;8.40;4.00;;;8.20;99.90;;;;;;5089351;28;20020;-65
2023/10/06 04:52:54;;;;;;;9.23;4.15;;;8.20;99.90;;;;;;5091895;28;20410;-66
2023/10/06 04:55:20;;;;;;;9.07;4.18;;;8.20;99.90;;;;;;5092639;28;20012;-66
2023/10/06 04:57:46;;;;;;;11.18;4.55;;;8.20;99.90;;;;;;5087770;28;20087;-66
2023/10/06 05:00:14;;;;;;;12.77;4.00;;;8.10;99.90;;;;;;5091829;28;20020;-66
2023/10/06 05:02:43;;;;;;;13.60;4.85;;;8.10;99.90;;;;;;5089623;28;20495;-65
2023/10/06 05:05:19;;;;;;;19.45;4.32;;;8.00;99.90;;;;;;5092737;28;20028;-65
2023/10/06 05:07:51;;;;;;;11.27;4.63;;;8.00;99.90;;;;;;5088026;28;20034;-66
2023/10/06 05:10:27;;;;;;;11.68;4.85;;;8.00;99.90;;;;;;5091093;28;20027;-67
2023/10/06 05:12:53;;;;;;;18.48;5.25;;;8.00;99.90;;;;;;5089943;28;20042;-66
2023/10/06 05:15:23;;;;;;;11.07;6.07;;;8.00;99.90;;;;;;5092537;28;20465;-65
2023/10/06 05:17:55;;;;;;;17.05;4.43;;;8.00;99.90;;;;;;5080954;28;20033;-67
2023/10/06 05:20:21;;;;;;;10.57;4.53;;;8.00;99.90;;;;;;5094296;28;20489;-66
2023/10/06 05:22:48;;;;;;;9.27;4.55;;;8.00;99.90;;;;;;5091768;28;20051;-65
2023/10/06 05:25:15;;;;;;;11.13;4.70;;;8.00;99.90;;;;;;5091550;28;20024;-66
2023/10/06 05:27:42;;;;;;;10.40;4.38;;;8.00;99.90;;;;;;5088391;28;20408;-65
2023/10/06 05:30:08;;;;;;;14.77;4.72;;;8.00;99.90;;;;;;5088342;28;20024;-62
2023/10/06 05:32:35;;;;;;;12.57;5.15;;;8.00;99.90;;;;;;5089153;28;20024;-66
2023/10/06 05:35:01;;;;;;;14.50;5.45;;;8.10;99.90;;;;;;5093968;28;20027;-65
2023/10/06 05:37:29;;;;;;;13.77;5.60;;;8.10;99.90;;;;;;5091741;28;20023;-65
2023/10/06 05:39:54;;;;;;;12.07;5.47;;;8.10;99.90;;;;;;5090028;28;20020;-66
2023/10/06 05:42:20;;;;;;;10.77;4.97;;;8.10;99.90;;;;;;5094408;28;20142;-66
2023/10/06 05:44:46;;;;;;;9.02;5.18;;;8.20;99.90;;;;;;5091391;28;20063;-66
2023/10/06 05:47:11;;;;;;;13.13;5.47;;;8.20;99.90;;;;;;5089244;28;20020;-64
2023/10/06 05:49:38;;;;;;;14.43;5.05;;;8.20;99.90;;;;;;5093907;28;20096;-65
2023/10/06 05:52:10;;;;;;;22.52;6.00;;;8.20;99.90;;;;;;5091021;28;20481;-66
2023/10/06 05:54:37;;;;;;;11.35;5.65;;;8.30;99.90;;;;;;5088914;28;20059;-65
2023/10/06 05:57:04;;;;;;;10.82;5.05;;;8.30;99.90;;;;;;5090179;28;20077;-65
2023/10/06 05:59:32;;;;;;;10.10;4.53;;;8.40;99.90;;;;;;5070184;28;20058;-67
2023/10/06 06:02:00;;;;;;;15.68;5.28;;;8.40;99.90;;;;;;5087555;28;20020;-66
2023/10/06 06:04:30;;;;;;;12.77;5.03;;;8.50;99.90;;;;;;5092739;28;20020;-66
2023/10/06 06:06:56;;;;;;;10.20;4.82;;;8.60;99.90;;;;;;5094590;28;20043;-67
2023/10/06 06:09:25;;;;;;;11.90;5.25;;;8.70;99.90;;;;;;5095685;28;20061;-66
2023/10/06 06:11:51;;;;;;;10.50;5.20;;;8.70;99.90;;;;;;5088942;28;20106;-65
2023/10/06 06:14:21;;;;;;;7.80;5.05;;;8.80;99.90;;;;;;5089946;28;20103;-67
2023/10/06 06:16:47;;;;;;;9.48;4.80;;;8.90;99.90;;;;;;5092586;28;20038;-65
2023/10/06 06:19:14;;;;;;;10.50;4.68;;;9.00;99.90;;;;;;5089137;28;20124;-65
2023/10/06 06:21:40;;;;;;;8.18;4.75;;;9.10;99.90;;;;;;5092000;28;20666;-65
2023/10/06 06:24:06;;;;;;;10.27;4.22;;;9.20;99.90;;;;;;5091290;28;20027;-66
2023/10/06 06:26:34;;;;;;;12.10;4.30;;;9.30;99.90;;;;;;5094672;28;20080;-67
2023/10/06 06:29:02;;;;;;;10.55;5.03;;;9.30;99.90;;;;;;5092721;28;20442;-65
2023/10/06 06:31:34;;;;;;;7.43;4.07;;;9.40;99.90;;;;;;5090952;28;20016;-68
2023/10/06 06:34:04;;;;;;;9.05;3.95;;;9.50;99.90;;;;;;5087169;28;20024;-67
2023/10/06 06:36:31;;;;;;;16.25;4.78;;;9.60;99.90;;;;;;5098442;28;20026;-67
2023/10/06 06:38:58;;;;;;;6.40;3.60;;;9.60;99.90;;;;;;5097892;28;20609;-65
2023/10/06 06:41:24;;;;;;;9.43;3.47;;;9.70;99.90;;;;;;5093832;28;20028;-66
2023/10/06 06:43:57;;;;;;;8.10;3.70;;;9.80;99.90;;;;;;5093027;28;20047;-66
2023/10/06 06:46:23;;;;;;;10.32;3.88;;;9.90;99.90;;;;;;5099124;28;20473;-67
2023/10/06 06:48:49;;;;;;;7.53;3.10;;;10.00;99.90;;;;;;5071656;28;20043;-66
2023/10/06 06:51:14;;;;;;;12.48;3.53;;;10.00;99.90;;;;;;5095652;28;20020;-66
2023/10/06 06:53:40;;;;;;;10.60;3.40;;;10.20;99.90;;;;;;5085257;28;20107;-67
2023/10/06 06:56:06;;;;;;;8.45;3.00;;;10.40;99.90;;;;;;5092605;28;20020;-66
2023/10/06 06:58:32;;;;;;;13.18;3.88;;;10.50;99.90;;;;;;5094270;28;20032;-65
2023/10/06 07:00:58;;;;;;;5.90;3.00;;;10.60;99.90;;;;;;5090779;28;20036;-67
2023/10/06 07:03:24;;;;;;;5.78;2.72;;;10.70;99.90;;;;;;5095484;28;20043;-66
2023/10/06 07:05:50;;;;;;;4.70;3.25;;;10.70;99.90;;;;;;5097190;28;20053;-67
2023/10/06 07:08:16;;;;;;;4.80;2.83;;;10.90;99.90;;;;;;5091934;28;20401;-67
2023/10/06 07:10:50;;;;;;;8.02;3.15;;;11.00;99.90;;;;;;5096049;28;20027;-65
2023/10/06 07:13:16;;;;;;;7.70;3.13;;;11.20;99.90;;;;;;5091277;28;20663;-66
2023/10/06 07:15:41;;;;;;;6.07;3.17;;;11.40;99.90;;;;;;5091646;28;20050;-65
2023/10/06 07:18:10;;;;;;;7.38;3.00;;;11.50;99.90;;;;;;5096305;28;20028;-64
2023/10/06 07:20:35;;;;;;;7.30;2.83;;;11.60;99.90;;;;;;5097061;28;20443;-65
2023/10/06 07:23:01;;;;;;;8.13;2.88;;;11.90;99.90;;;;;;5092826;28;20028;-66
2023/10/06 07:25:27;;;;;;;5.43;2.47;;;12.00;99.90;;;;;;5091771;28;20026;-65
2023/10/06 07:27:57;;;;;;;6.05;2.58;;;12.30;99.90;;;;;;5088001;28;20107;-66
2023/10/06 07:30:25;;;;;;;9.27;2.97;;;12.50;99.90;;;;;;5094905;28;20038;-67
2023/10/06 07:32:54;;;;;;;9.90;3.15;;;12.50;99.90;;;;;;5086363;28;20099;-67
2023/10/06 07:35:25;;;;;;;7.28;3.08;;;12.50;99.90;;;;;;5095498;28;20038;-67
2023/10/06 07:37:52;;;;;;;11.15;2.83;;;12.60;99.90;;;;;;5095585;28;20028;-67
2023/10/06 07:40:18;;;;;;;6.05;2.35;;;12.60;99.90;;;;;;5086894;28;20020;-66
2023/10/06 07:42:49;;;;;;;4.85;2.40;;;12.80;99.90;;;;;;5084255;28;20028;-65
2023/10/06 07:45:16;;;;;;;12.32;2.95;;;12.90;99.90;;;;;;5091624;28;20032;-64
2023/10/06 07:47:42;;;;;;;7.80;3.08;;;13.00;99.90;;;;;;5075974;28;20044;-67
2023/10/06 07:50:09;;;;;;;10.35;2.00;;;13.40;99.90;;;;;;5088296;28;20438;-68
2023/10/06 07:52:36;;;;;;;7.53;2.38;;;13.70;99.90;;;;;;5092889;28;20460;-66
2023/10/06 07:55:06;;;;;;;5.63;2.53;;;13.90;99.90;;;;;;5093169;28;20024;-65
2023/10/06 07:57:33;;;;;;;6.70;2.60;;;14.10;99.90;;;;;;5096784;28;20027;-66
2023/10/06 08:00:06;;;;;;;7.03;2.92;;;14.10;99.90;;;;;;5096715;28;20049;-68
2023/10/06 08:02:32;;;;;;;6.88;2.35;;;14.20;99.90;;;;;;5074043;28;20470;-65
2023/10/06 08:04:59;;;;;;;7.43;2.40;;;14.20;99.90;;;;;;5091236;28;20028;-66
2023/10/06 08:07:28;;;;;;;6.40;2.47;;;14.30;99.90;;;;;;5093783;28;20036;-66
2023/10/06 08:09:59;;;;;;;3.92;2.35;;;14.50;99.90;;;;;;5095406;28;20027;-67
2023/10/06 08:12:25;;;;;;;6.03;2.00;;;14.50;99.90;;;;;;5098668;28;20099;-67
2023/10/06 08:14:50;;;;;;;4.95;1.90;;;14.70;99.90;;;;;;5098051;28;20560;-63
2023/10/06 08:17:19;;;;;;;10.38;2.38;;;14.60;99.90;;;;;;5093484;28;20385;-67
2023/10/06 08:19:46;;;;;;;7.22;2.58;;;14.80;99.90;;;;;;5103063;28;20419;-67
2023/10/06 08:22:12;;;;;;;10.32;2.03;;;14.90;99.90;;;;;;5049608;28;1266427;-65
2023/10/06 08:24:38;;;;;;;6.03;2.03;;;14.80;99.90;;;;;;5101008;28;20111;-67
2023/10/06 08:27:06;;;;;;;8.18;2.38;;;14.80;99.90;;;;;;5095263;28;20024;-68
2023/10/06 08:29:33;;;;;;;5.63;2.10;;;15.00;99.90;;;;;;5104578;28;20023;-67
2023/10/06 08:31:59;;;;;;;5.57;2.20;;;14.90;99.90;;;;;;5098109;28;20020;-64
2023/10/06 08:34:25;;;;;;;5.25;2.58;;;14.90;99.90;;;;;;5090511;28;20028;-65
2023/10/06 08:36:51;;;;;;;7.55;3.03;;;14.80;99.90;;;;;;5091124;28;20021;-66
2023/10/06 08:39:17;;;;;;;8.32;2.58;;;14.70;99.90;;;;;;5091877;28;20111;-67
2023/10/06 08:41:45;;;;;;;5.43;2.58;;;14.70;99.90;;;;;;5091369;28;20467;-67
2023/10/06 08:44:14;;;;;;;9.23;2.03;;;14.70;99.90;;;;;;5091179;28;20070;-65
2023/10/06 08:46:44;;;;;;;10.93;2.63;;;14.70;99.90;;;;;;5095087;28;20111;-65
2023/10/06 08:49:11;;;;;;;6.80;2.55;;;14.70;99.90;;;;;;5083532;28;20039;-67
2023/10/06 08:51:39;;;;;;;7.00;2.28;;;14.70;99.90;;;;;;5092310;28;20103;-67
2023/10/06 08:54:07;;;;;;;5.07;2.38;;;14.80;99.90;;;;;;5094352;28;20039;-67
2023/10/06 08:56:34;;;;;;;5.50;2.40;;;15.00;99.90;;;;;;5089362;28;20093;-67
2023/10/06 08:59:00;;;;;;;6.05;1.83;;;15.20;99.90;;;;;;5088745;28;20035;-67
2023/10/06 09:01:28;;;;;;;8.95;2.40;;;15.70;99.90;;;;;;5092564;28;20048;-66
2023/10/06 09:03:55;;;;;;;6.93;2.25;;;16.20;99.90;;;;;;5088627;28;20024;-67
2023/10/06 09:06:20;;;;;;;4.70;2.13;;;17.10;99.90;;;;;;5093727;28;20067;-67
2023/10/06 09:08:49;;;;;;;10.07;2.50;;;17.50;99.90;;;;;;5097637;28;20058;-66
2023/10/06 09:11:15;;;;;;;8.65;2.00;;;18.30;99.90;;;;;;5088994;28;20058;-67
2023/10/06 09:13:41;;;;;;;5.22;1.52;;;18.70;99.90;;;;;;5089798;28;20063;-66
2023/10/06 09:16:07;;;;;;;4.68;2.28;;;18.80;99.90;;;;;;5094444;28;20042;-64
2023/10/06 09:18:38;;;;;;;5.40;2.00;;;19.50;99.90;;;;;;5090806;28;20019;-65
2023/10/06 09:21:25;;;;;;;8.02;1.58;;;19.30;99.90;;;;;;5095421;28;20115;-67
2023/10/06 09:23:52;;;;;;;6.72;1.95;;;19.50;99.90;;;;;;5090629;28;20021;-66
2023/10/06 09:26:27;;;;;;;5.63;2.45;;;19.20;99.90;;;;;;5097501;28;20024;-66
2023/10/06 09:28:55;;;;;;;11.52;2.30;;;19.40;99.90;;;;;;5104932;28;20076;-64
2023/10/06 09:31:38;;;;;;;7.10;1.88;;;19.80;99.90;;;;;;5084557;28;20488;-66
2023/10/06 09:34:07;;;;;;;5.30;1.90;;;19.70;99.90;;;;;;5095011;28;20031;-65
2023/10/06 09:36:35;;;;;;;3.72;1.55;;;19.20;99.90;;;;;;5096813;28;20020;-66
2023/10/06 09:39:03;;;;;;;5.90;2.20;;;19.30;99.90;;;;;;5090438;28;20065;-65
2023/10/06 09:41:30;;;;;;;4.72;1.63;;;19.30;99.90;;;;;;5094537;28;20035;-66
2023/10/06 09:44:09;;;;;;;8.48;1.90;;;19.40;99.90;;;;;;5093750;28;20016;-66
2023/10/06 09:46:35;;;;;;;5.20;1.50;;;19.50;99.90;;;;;;5080478;28;20115;-66
2023/10/06 09:49:07;;;;;;;4.63;2.17;;;19.60;99.90;;;;;;5091352;28;20109;-66
2023/10/06 09:51:34;;;;;;;6.63;2.10;;;19.60;99.90;;;;;;5088185;28;20015;-66
2023/10/06 09:54:00;;;;;;;8.13;2.05;;;19.90;99.90;;;;;;5094019;28;20111;-67
2023/10/06 09:56:27;;;;;;;8.15;2.00;;;19.60;99.90;;;;;;5102969;28;20032;-66
2023/10/06 09:58:54;;;;;;;6.20;1.85;;;19.40;99.90;;;;;;5092794;28;20052;-64
2023/10/06 10:01:25;;;;;;;7.45;2.38;;;19.20;99.90;;;;;;5092191;28;20016;-67
2023/10/06 10:03:56;;;;;;;9.80;1.75;;;19.30;99.90;;;;;;5090371;28;20023;-65
2023/10/06 10:06:22;;;;;;;7.15;1.60;;;19.00;99.90;;;;;;5105150;28;20499;-66
2023/10/06 10:08:51;;;;;;;6.15;1.73;;;18.90;99.90;;;;;;5098490;28;20182;-67
2023/10/06 10:11:29;;;;;;;7.32;2.10;;;18.80;99.90;;;;;;5097932;28;20020;-66
2023/10/06 10:14:20;;;;;;;5.55;2.00;;;18.70;99.90;;;;;;5096464;28;20093;-65
2023/10/06 10:16:57;;;;;;;4.15;1.65;;;18.90;99.90;;;;;;5078785;28;20040;-65
2023/10/06 10:19:26;;;;;;;4.80;2.20;;;19.00;99.90;;;;;;5092727;28;20036;-65
2023/10/06 10:21:54;;;;;;;6.10;1.92;;;19.20;99.90;;;;;;5091479;28;20413;-66
2023/10/06 10:24:21;;;;;;;7.50;2.20;;;19.20;99.90;;;;;;5096795;28;20020;-66
2023/10/06 10:26:47;;;;;;;7.47;1.58;;;19.30;99.90;;;;;;5093521;28;20059;-65
2023/10/06 10:29:13;;;;;;;6.95;1.73;;;19.20;99.90;;;;;;5100548;28;20431;-67
2023/10/06 10:31:51;;;;;;;3.70;1.75;;;19.10;99.90;;;;;;5097595;28;20124;-65
2023/10/06 10:34:25;;;;;;;7.13;2.10;;;19.00;99.90;;;;;;5091359;28;20513;-67
2023/10/06 10:37:08;;;;;;;6.03;1.90;;;18.70;99.90;;;;;;5095475;28;20473;-68
2023/10/06 10:39:45;;;;;;;6.63;1.73;;;18.70;99.90;;;;;;5098827;28;20020;-68
2023/10/06 10:42:12;;;;;;;4.90;1.90;;;18.70;99.90;;;;;;5089377;28;20024;-63
2023/10/06 10:44:39;;;;;;;4.63;1.80;;;18.90;99.90;;;;;;5093168;28;20030;-69
2023/10/06 10:47:06;;;;;;;6.47;2.20;;;19.00;99.90;;;;;;5097006;28;20051;-70
2023/10/06 10:49:32;;;;;;;8.43;2.05;;;19.10;99.90;;;;;;5087575;27;20529;-67
2023/10/06 10:52:05;;;;;;;4.15;1.95;;;19.10;99.90;;;;;;5091052;28;20032;-64
2023/10/06 10:54:33;;;;;;;5.17;2.63;;;19.30;99.90;;;;;;5106994;28;20419;-65
2023/10/06 10:57:05;;;;;;;6.05;1.98;;;19.40;99.90;;;;;;5099623;28;20711;-64
2023/10/06 11:00:00;;;;;;;5.28;2.00;;;19.50;99.90;;;;;;5093875;28;20057;-65
2023/10/06 11:02:35;;;;;;;6.43;2.03;;;19.20;99.90;;;;;;5089213;28;20028;-64
2023/10/06 11:05:04;;;;;;;8.52;1.90;;;19.00;99.90;;;;;;5098293;28;20015;-65
2023/10/06 11:07:30;;;;;;;10.55;2.58;;;18.90;99.90;;;;;;5086645;28;20416;-65
2023/10/06 11:09:57;;;;;;;5.65;2.10;;;19.00;99.90;;;;;;5089630;28;20031;-65
2023/10/06 11:12:24;;;;;;;4.53;2.00;;;19.10;99.90;;;;;;5097438;28;20035;-65
2023/10/06 11:14:51;;;;;;;4.78;1.85;;;19.30;99.90;;;;;;5101331;28;20508;-64
2023/10/06 11:17:24;;;;;;;11.85;2.42;;;19.20;99.90;;;;;;5075388;28;20020;-63
2023/10/06 11:20:00;;;;;;;;;;;19.20;99.90;;;;;;5094387;28;20618;-64
2023/10/06 11:22:27;;;;;;;6.85;2.20;;;19.00;99.90;;;;;;5069831;28;20292;-66
2023/10/06 11:24:57;;;;;;;8.35;2.45;;;18.80;99.90;;;;;;5096992;28;20028;-64
2023/10/06 11:27:23;;;;;;;7.22;2.08;;;18.80;99.90;;;;;;5086512;28;20028;-65
2023/10/06 11:29:52;;;;;;;5.05;1.98;;;18.80;99.90;;;;;;5107031;28;20040;-63
2023/10/06 11:32:19;;;;;;;8.07;1.88;;;18.90;99.90;;;;;;5088644;28;20034;-64
2023/10/06 11:34:45;;;;;;;7.22;2.08;;;18.90;99.90;;;;;;5093622;28;20077;-65
2023/10/06 11:37:12;;;;;;;7.00;2.33;;;18.90;99.90;;;;;;5084061;28;20039;-64
2023/10/06 11:39:38;;;;;;;8.75;2.67;;;18.90;99.90;;;;;;5089829;28;20481;-65
2023/10/06 11:42:23;;;;;;;5.38;2.08;;;18.90;99.90;;;;;;5088351;28;20056;-65
2023/10/06 11:44:49;;;;;;;5.93;2.10;;;19.00;99.90;;;;;;5100758;28;20032;-67
2023/10/06 11:47:14;;;;;;;7.13;2.13;;;19.00;99.90;;;;;;5097796;28;20104;-65
2023/10/06 11:49:55;;;;;;;7.65;2.47;;;19.00;99.90;;;;;;5096149;27;20056;-65
2023/10/06 11:52:21;;;;;;;6.00;2.58;;;18.90;99.90;;;;;;5102379;28;20024;-65
2023/10/06 11:54:47;;;;;;;6.00;2.08;;;18.90;99.90;;;;;;5084321;28;20732;-66
2023/10/06 11:57:16;;;;;;;9.57;2.00;;;18.80;99.90;;;;;;5100996;28;20420;-65
2023/10/06 11:59:52;;;;;;;7.80;1.88;;;18.80;99.90;;;;;;5103895;28;20023;-67
2023/10/06 12:02:19;;;;;;;7.28;2.17;;;18.90;99.90;;;;;;5091295;28;20031;-69
2023/10/06 12:04:44;;;;;;;7.63;1.95;;;19.00;99.90;;;;;;5087827;28;20020;-67
2023/10/06 12:07:38;;;;;;;13.48;2.67;;;18.90;99.90;;;;;;5086495;28;20363;-67
2023/10/06 12:10:05;;;;;;;5.40;2.13;;;18.90;99.90;;;;;;5092041;28;20402;-69
2023/10/06 12:12:30;;;;;;;8.27;2.05;;;18.90;99.90;;;;;;5093423;28;20069;-66
2023/10/06 12:14:56;;;;;;;5.13;1.55;;;18.90;99.90;;;;;;5099324;28;20510;-69
2023/10/06 12:17:23;;;;;;;7.28;2.00;;;18.90;99.90;;;;;;5100231;28;20028;-69
2023/10/06 12:19:49;;;;;;;7.28;1.98;;;18.90;99.90;;;;;;5090537;28;20032;-68
2023/10/06 12:22:14;;;;;;;6.22;2.10;;;18.90;99.90;;;;;;5086879;28;20039;-66
2023/10/06 12:24:40;;;;;;;7.50;2.25;;;19.00;99.90;;;;;;5090193;28;20032;-66
2023/10/06 12:27:06;;;;;;;5.30;2.10;;;19.00;99.90;;;;;;5070892;28;20101;-68
2023/10/06 12:29:31;;;;;;;5.95;1.70;;;19.00;99.90;;;;;;5089469;28;20036;-64
2023/10/06 12:31:58;;;;;;;9.88;1.85;;;19.10;99.90;;;;;;5091104;28;20068;-65
2023/10/06 12:34:27;;;;;;;4.28;2.03;;;19.00;99.90;;;;;;5089515;28;20160;-65
2023/10/06 12:36:53;;;;;;;4.50;1.60;;;19.10;99.90;;;;;;5089495;28;20109;-65
2023/10/06 12:39:34;;;;;;;5.65;1.63;;;19.30;99.90;;;;;;5091255;28;20449;-67
2023/10/06 12:42:07;;;;;;;6.03;2.05;;;19.40;99.90;;;;;;5090919;28;20024;-67
2023/10/06 12:44:39;;;;;;;10.47;2.37;;;19.60;99.90;;;;;;5087864;28;20089;-67
2023/10/06 12:47:10;;;;;;;5.93;1.88;;;19.50;99.90;;;;;;5089735;28;20024;-67
2023/10/06 12:49:36;;;;;;;3.50;1.48;;;19.70;99.90;;;;;;5086369;28;20032;-67
2023/10/06 12:52:02;;;;;;;5.57;1.98;;;19.70;99.90;;;;;;5090170;27;20089;-65
2023/10/06 12:54:29;;;;;;;4.28;1.52;;;19.80;99.90;;;;;;5090804;28;20129;-66
2023/10/06 12:56:55;;;;;;;4.63;1.77;;;19.80;99.90;;;;;;5093313;28;20020;-66
2023/10/06 12:59:21;;;;;;;10.30;1.77;;;19.80;99.50;;;;;;5089240;28;20028;-66
2023/10/06 13:01:50;;;;;;;5.43;1.90;;;19.70;98.20;;;;;;5087160;28;20043;-66
2023/10/06 13:04:16;;;;;;;7.85;1.95;;;19.70;98.80;;;;;;5086272;28;20077;-65
2023/10/06 13:06:42;;;;;;;7.75;2.17;;;19.60;99.90;;;;;;5085045;28;20043;-65
2023/10/06 13:09:09;;;;;;;6.60;1.80;;;19.50;99.90;;;;;;5089694;28;20562;-66